Terminal Aerodrome Forecast
Issued by NWS Wilmington, OH

Current Version | Previous Version | Graphics & Text | Print | Product List | Glossary On
Versions: 1 2 3 4 5 6 7 8 9 10 11 12 13 14 15 16 17
145
FTUS41 KILN 092339
TAFCMH
TAF
KCMH 092339Z 1000/1024 26012KT 4SM -SHSN OVC018
      TEMPO 1000/1004 1 1/2SM -SHSN
     FM100400 27011KT P6SM -SHSN OVC022
     FM101300 27014KT 1SM -SHSN SCT007 OVC015
     FM101700 28016G23KT 4SM -SHSN OVC022
     FM102000 28016G23KT P6SM -SHSN OVC025=

USA.gov is the U.S. government's official web portal to all federal, state and local government web resources and services.